sensor_id;sensor_type;location;lat;lon;timestamp;P1;durP1;ratioP1;P2;durP2;ratioP2
11827;SDS011;5971;49.646;8.568;2022-12-18T00:02:37;5.32;;;4.07;;
11827;SDS011;5971;49.646;8.568;2022-12-18T00:05:47;5.55;;;3.10;;
11827;SDS011;5971;49.646;8.568;2022-12-18T00:08:48;3.33;;;2.63;;
11827;SDS011;5971;49.646;8.568;2022-12-18T00:11:50;4.97;;;4.07;;
11827;SDS011;5971;49.646;8.568;2022-12-18T00:14:51;9.15;;;4.32;;
11827;SDS011;5971;49.646;8.568;2022-12-18T00:17:52;3.78;;;2.70;;
11827;SDS011;5971;49.646;8.568;2022-12-18T00:20:54;6.82;;;4.15;;
11827;SDS011;5971;49.646;8.568;2022-12-18T00:23:59;8.90;;;3.75;;
11827;SDS011;5971;49.646;8.568;2022-12-18T00:27:00;3.45;;;2.72;;
11827;SDS011;5971;49.646;8.568;2022-12-18T00:30:02;5.15;;;4.05;;
11827;SDS011;5971;49.646;8.568;2022-12-18T00:33:03;4.07;;;3.70;;
11827;SDS011;5971;49.646;8.568;2022-12-18T00:36:05;7.03;;;5.22;;
11827;SDS011;5971;49.646;8.568;2022-12-18T00:39:07;6.45;;;4.30;;
11827;SDS011;5971;49.646;8.568;2022-12-18T00:42:10;5.60;;;2.95;;
11827;SDS011;5971;49.646;8.568;2022-12-18T00:45:30;4.93;;;3.72;;
11827;SDS011;5971;49.646;8.568;2022-12-18T00:48:32;3.67;;;2.97;;
11827;SDS011;5971;49.646;8.568;2022-12-18T00:51:33;3.58;;;2.85;;
11827;SDS011;5971;49.646;8.568;2022-12-18T00:54:35;5.45;;;4.07;;
11827;SDS011;5971;49.646;8.568;2022-12-18T00:57:36;2.95;;;2.63;;
11827;SDS011;5971;49.646;8.568;2022-12-18T01:00:37;5.10;;;3.83;;
11827;SDS011;5971;49.646;8.568;2022-12-18T01:03:39;2.20;;;2.03;;
11827;SDS011;5971;49.646;8.568;2022-12-18T01:06:41;6.15;;;2.78;;
11827;SDS011;5971;49.646;8.568;2022-12-18T01:09:43;8.77;;;4.80;;
11827;SDS011;5971;49.646;8.568;2022-12-18T01:12:44;3.28;;;2.78;;
11827;SDS011;5971;49.646;8.568;2022-12-18T01:15:49;5.20;;;3.20;;
11827;SDS011;5971;49.646;8.568;2022-12-18T01:18:51;5.40;;;4.90;;
11827;SDS011;5971;49.646;8.568;2022-12-18T01:21:52;2.53;;;2.17;;
11827;SDS011;5971;49.646;8.568;2022-12-18T01:24:54;5.85;;;4.25;;
11827;SDS011;5971;49.646;8.568;2022-12-18T01:27:55;5.07;;;3.78;;
11827;SDS011;5971;49.646;8.568;2022-12-18T01:30:56;3.25;;;2.95;;
11827;SDS011;5971;49.646;8.568;2022-12-18T01:34:00;7.15;;;4.10;;
11827;SDS011;5971;49.646;8.568;2022-12-18T01:37:03;13.25;;;4.90;;
11827;SDS011;5971;49.646;8.568;2022-12-18T01:40:04;2.22;;;2.03;;
11827;SDS011;5971;49.646;8.568;2022-12-18T01:43:08;4.15;;;3.10;;
11827;SDS011;5971;49.646;8.568;2022-12-18T01:46:10;4.07;;;3.40;;
11827;SDS011;5971;49.646;8.568;2022-12-18T01:49:11;2.08;;;1.92;;
11827;SDS011;5971;49.646;8.568;2022-12-18T01:52:13;3.17;;;2.60;;
11827;SDS011;5971;49.646;8.568;2022-12-18T01:55:14;6.93;;;3.45;;
11827;SDS011;5971;49.646;8.568;2022-12-18T01:58:17;2.92;;;2.65;;
11827;SDS011;5971;49.646;8.568;2022-12-18T02:01:20;2.03;;;1.65;;
11827;SDS011;5971;49.646;8.568;2022-12-18T02:04:23;4.60;;;4.18;;
11827;SDS011;5971;49.646;8.568;2022-12-18T02:10:38;2.92;;;2.65;;
11827;SDS011;5971;49.646;8.568;2022-12-18T02:13:49;5.93;;;4.15;;
11827;SDS011;5971;49.646;8.568;2022-12-18T02:16:55;3.95;;;2.60;;
11827;SDS011;5971;49.646;8.568;2022-12-18T02:20:06;2.50;;;2.30;;
11827;SDS011;5971;49.646;8.568;2022-12-18T02:26:36;2.28;;;2.08;;
11827;SDS011;5971;49.646;8.568;2022-12-18T02:29:41;2.55;;;1.75;;
11827;SDS011;5971;49.646;8.568;2022-12-18T02:32:45;3.15;;;2.88;;
11827;SDS011;5971;49.646;8.568;2022-12-18T02:35:47;2.53;;;2.33;;
11827;SDS011;5971;49.646;8.568;2022-12-18T02:38:49;3.33;;;2.35;;
11827;SDS011;5971;49.646;8.568;2022-12-18T02:41:51;5.30;;;2.55;;
11827;SDS011;5971;49.646;8.568;2022-12-18T02:44:53;3.25;;;1.70;;
11827;SDS011;5971;49.646;8.568;2022-12-18T02:47:57;1.92;;;1.80;;
11827;SDS011;5971;49.646;8.568;2022-12-18T02:51:08;2.38;;;2.17;;
11827;SDS011;5971;49.646;8.568;2022-12-18T02:54:26;2.40;;;2.20;;
11827;SDS011;5971;49.646;8.568;2022-12-18T03:01:11;7.18;;;2.45;;
11827;SDS011;5971;49.646;8.568;2022-12-18T03:04:17;4.45;;;3.67;;
11827;SDS011;5971;49.646;8.568;2022-12-18T03:07:21;2.92;;;2.50;;
11827;SDS011;5971;49.646;8.568;2022-12-18T03:10:26;3.97;;;3.67;;
11827;SDS011;5971;49.646;8.568;2022-12-18T03:13:35;3.58;;;3.28;;
11827;SDS011;5971;49.646;8.568;2022-12-18T03:16:38;6.35;;;2.42;;
11827;SDS011;5971;49.646;8.568;2022-12-18T03:19:41;4.45;;;3.95;;
11827;SDS011;5971;49.646;8.568;2022-12-18T03:22:44;4.00;;;2.95;;
11827;SDS011;5971;49.646;8.568;2022-12-18T03:25:46;3.63;;;3.22;;
11827;SDS011;5971;49.646;8.568;2022-12-18T03:28:50;3.22;;;2.60;;
11827;SDS011;5971;49.646;8.568;2022-12-18T03:31:56;6.95;;;3.85;;
11827;SDS011;5971;49.646;8.568;2022-12-18T03:35:01;5.35;;;3.75;;
11827;SDS011;5971;49.646;8.568;2022-12-18T03:38:03;3.90;;;2.72;;
11827;SDS011;5971;49.646;8.568;2022-12-18T03:41:07;4.25;;;2.50;;
11827;SDS011;5971;49.646;8.568;2022-12-18T03:44:19;4.13;;;3.22;;
11827;SDS011;5971;49.646;8.568;2022-12-18T03:50:31;2.75;;;2.30;;
11827;SDS011;5971;49.646;8.568;2022-12-18T03:56:47;3.90;;;2.83;;
11827;SDS011;5971;49.646;8.568;2022-12-18T03:59:50;7.53;;;4.57;;
11827;SDS011;5971;49.646;8.568;2022-12-18T04:02:53;5.40;;;3.53;;
11827;SDS011;5971;49.646;8.568;2022-12-18T04:05:55;5.65;;;3.70;;
11827;SDS011;5971;49.646;8.568;2022-12-18T04:08:57;4.28;;;3.22;;
11827;SDS011;5971;49.646;8.568;2022-12-18T04:11:59;4.13;;;2.65;;
11827;SDS011;5971;49.646;8.568;2022-12-18T04:15:00;3.50;;;2.42;;
11827;SDS011;5971;49.646;8.568;2022-12-18T04:18:02;4.38;;;2.80;;
11827;SDS011;5971;49.646;8.568;2022-12-18T04:21:03;6.07;;;5.18;;
11827;SDS011;5971;49.646;8.568;2022-12-18T04:24:05;3.33;;;2.85;;
11827;SDS011;5971;49.646;8.568;2022-12-18T04:27:06;4.95;;;2.97;;
11827;SDS011;5971;49.646;8.568;2022-12-18T04:30:08;3.88;;;3.03;;
11827;SDS011;5971;49.646;8.568;2022-12-18T04:33:10;3.53;;;1.88;;
11827;SDS011;5971;49.646;8.568;2022-12-18T04:36:11;3.72;;;3.08;;
11827;SDS011;5971;49.646;8.568;2022-12-18T04:39:13;5.18;;;3.60;;
11827;SDS011;5971;49.646;8.568;2022-12-18T04:42:15;4.53;;;3.15;;
11827;SDS011;5971;49.646;8.568;2022-12-18T04:45:16;8.60;;;2.78;;
11827;SDS011;5971;49.646;8.568;2022-12-18T04:48:17;10.15;;;4.55;;
11827;SDS011;5971;49.646;8.568;2022-12-18T04:51:18;3.35;;;3.05;;
11827;SDS011;5971;49.646;8.568;2022-12-18T04:54:26;5.20;;;3.13;;
11827;SDS011;5971;49.646;8.568;2022-12-18T04:57:28;4.95;;;4.18;;
11827;SDS011;5971;49.646;8.568;2022-12-18T05:00:29;1.80;;;1.52;;
11827;SDS011;5971;49.646;8.568;2022-12-18T05:03:30;3.28;;;2.92;;
11827;SDS011;5971;49.646;8.568;2022-12-18T05:06:32;3.53;;;3.13;;
11827;SDS011;5971;49.646;8.568;2022-12-18T05:09:33;2.28;;;2.13;;
11827;SDS011;5971;49.646;8.568;2022-12-18T05:12:34;3.38;;;2.95;;
11827;SDS011;5971;49.646;8.568;2022-12-18T05:15:56;2.75;;;2.53;;
11827;SDS011;5971;49.646;8.568;2022-12-18T05:18:57;2.17;;;2.00;;
11827;SDS011;5971;49.646;8.568;2022-12-18T05:21:58;2.88;;;2.65;;
11827;SDS011;5971;49.646;8.568;2022-12-18T05:25:00;4.10;;;2.60;;
11827;SDS011;5971;49.646;8.568;2022-12-18T05:28:01;5.07;;;2.70;;
11827;SDS011;5971;49.646;8.568;2022-12-18T05:31:03;3.90;;;3.60;;
11827;SDS011;5971;49.646;8.568;2022-12-18T05:34:05;4.80;;;3.75;;
11827;SDS011;5971;49.646;8.568;2022-12-18T05:37:06;4.03;;;2.35;;
11827;SDS011;5971;49.646;8.568;2022-12-18T05:40:07;2.30;;;2.10;;
11827;SDS011;5971;49.646;8.568;2022-12-18T05:43:09;4.47;;;3.70;;
11827;SDS011;5971;49.646;8.568;2022-12-18T05:46:12;5.60;;;3.45;;
11827;SDS011;5971;49.646;8.568;2022-12-18T05:49:14;5.22;;;3.25;;
11827;SDS011;5971;49.646;8.568;2022-12-18T05:52:15;4.95;;;3.72;;
11827;SDS011;5971;49.646;8.568;2022-12-18T05:55:17;3.22;;;2.88;;
11827;SDS011;5971;49.646;8.568;2022-12-18T05:58:18;5.85;;;3.65;;
11827;SDS011;5971;49.646;8.568;2022-12-18T06:01:20;3.63;;;3.33;;
11827;SDS011;5971;49.646;8.568;2022-12-18T06:04:22;3.30;;;2.80;;
11827;SDS011;5971;49.646;8.568;2022-12-18T06:07:23;2.33;;;2.13;;
11827;SDS011;5971;49.646;8.568;2022-12-18T06:10:25;5.32;;;4.47;;
11827;SDS011;5971;49.646;8.568;2022-12-18T06:13:26;3.85;;;2.92;;
11827;SDS011;5971;49.646;8.568;2022-12-18T06:16:28;3.10;;;2.47;;
11827;SDS011;5971;49.646;8.568;2022-12-18T06:19:29;5.47;;;3.25;;
11827;SDS011;5971;49.646;8.568;2022-12-18T06:22:31;5.18;;;4.70;;
11827;SDS011;5971;49.646;8.568;2022-12-18T06:25:33;6.40;;;3.53;;
11827;SDS011;5971;49.646;8.568;2022-12-18T06:28:34;4.55;;;3.72;;
11827;SDS011;5971;49.646;8.568;2022-12-18T06:31:36;4.72;;;3.45;;
11827;SDS011;5971;49.646;8.568;2022-12-18T06:34:37;6.13;;;3.85;;
11827;SDS011;5971;49.646;8.568;2022-12-18T06:37:38;2.60;;;2.20;;
11827;SDS011;5971;49.646;8.568;2022-12-18T06:40:40;3.17;;;2.88;;
11827;SDS011;5971;49.646;8.568;2022-12-18T06:43:41;3.90;;;2.70;;
11827;SDS011;5971;49.646;8.568;2022-12-18T06:46:43;4.40;;;3.97;;
11827;SDS011;5971;49.646;8.568;2022-12-18T06:49:44;3.10;;;2.80;;
11827;SDS011;5971;49.646;8.568;2022-12-18T06:52:46;3.83;;;3.13;;
11827;SDS011;5971;49.646;8.568;2022-12-18T06:55:47;3.67;;;3.17;;
11827;SDS011;5971;49.646;8.568;2022-12-18T06:58:48;3.55;;;3.28;;
11827;SDS011;5971;49.646;8.568;2022-12-18T07:01:53;6.10;;;2.20;;
11827;SDS011;5971;49.646;8.568;2022-12-18T07:04:54;4.13;;;2.88;;
11827;SDS011;5971;49.646;8.568;2022-12-18T07:07:56;2.97;;;2.58;;
11827;SDS011;5971;49.646;8.568;2022-12-18T07:10:57;6.53;;;4.88;;
11827;SDS011;5971;49.646;8.568;2022-12-18T07:13:59;9.02;;;3.00;;
11827;SDS011;5971;49.646;8.568;2022-12-18T07:17:00;7.32;;;2.75;;
11827;SDS011;5971;49.646;8.568;2022-12-18T07:20:01;4.30;;;3.15;;
11827;SDS011;5971;49.646;8.568;2022-12-18T07:23:03;7.70;;;5.30;;
11827;SDS011;5971;49.646;8.568;2022-12-18T07:26:07;3.97;;;2.85;;
11827;SDS011;5971;49.646;8.568;2022-12-18T07:29:09;3.97;;;3.13;;
11827;SDS011;5971;49.646;8.568;2022-12-18T07:32:10;5.10;;;2.78;;
11827;SDS011;5971;49.646;8.568;2022-12-18T07:35:12;3.58;;;3.17;;
11827;SDS011;5971;49.646;8.568;2022-12-18T07:38:14;2.53;;;2.33;;
11827;SDS011;5971;49.646;8.568;2022-12-18T07:41:15;3.50;;;3.20;;
11827;SDS011;5971;49.646;8.568;2022-12-18T07:44:17;4.25;;;3.55;;
11827;SDS011;5971;49.646;8.568;2022-12-18T07:47:19;11.30;;;4.90;;
11827;SDS011;5971;49.646;8.568;2022-12-18T07:50:21;3.40;;;2.88;;
11827;SDS011;5971;49.646;8.568;2022-12-18T07:53:22;6.78;;;3.15;;
11827;SDS011;5971;49.646;8.568;2022-12-18T07:56:23;3.78;;;3.47;;
11827;SDS011;5971;49.646;8.568;2022-12-18T07:59:30;2.58;;;2.05;;
11827;SDS011;5971;49.646;8.568;2022-12-18T08:02:31;4.78;;;3.90;;
11827;SDS011;5971;49.646;8.568;2022-12-18T08:05:33;2.30;;;1.95;;
11827;SDS011;5971;49.646;8.568;2022-12-18T08:08:34;6.53;;;4.85;;
11827;SDS011;5971;49.646;8.568;2022-12-18T08:11:36;6.82;;;5.03;;
11827;SDS011;5971;49.646;8.568;2022-12-18T08:14:37;5.32;;;3.75;;
11827;SDS011;5971;49.646;8.568;2022-12-18T08:17:38;3.58;;;3.28;;
11827;SDS011;5971;49.646;8.568;2022-12-18T08:20:40;6.43;;;5.32;;
11827;SDS011;5971;49.646;8.568;2022-12-18T08:23:44;4.60;;;3.33;;
11827;SDS011;5971;49.646;8.568;2022-12-18T08:26:46;8.82;;;4.55;;
11827;SDS011;5971;49.646;8.568;2022-12-18T08:30:08;4.53;;;3.97;;
11827;SDS011;5971;49.646;8.568;2022-12-18T08:33:09;7.40;;;3.97;;
11827;SDS011;5971;49.646;8.568;2022-12-18T08:36:10;2.58;;;2.35;;
11827;SDS011;5971;49.646;8.568;2022-12-18T08:39:12;3.80;;;3.03;;
11827;SDS011;5971;49.646;8.568;2022-12-18T08:42:13;3.10;;;2.80;;
11827;SDS011;5971;49.646;8.568;2022-12-18T08:45:33;4.15;;;3.40;;
11827;SDS011;5971;49.646;8.568;2022-12-18T08:48:35;3.85;;;3.08;;
11827;SDS011;5971;49.646;8.568;2022-12-18T08:51:37;6.25;;;4.38;;
11827;SDS011;5971;49.646;8.568;2022-12-18T08:54:38;9.18;;;4.85;;
11827;SDS011;5971;49.646;8.568;2022-12-18T08:57:39;8.23;;;5.50;;
11827;SDS011;5971;49.646;8.568;2022-12-18T09:00:41;2.90;;;2.47;;
11827;SDS011;5971;49.646;8.568;2022-12-18T09:03:42;5.15;;;3.53;;
11827;SDS011;5971;49.646;8.568;2022-12-18T09:06:44;13.52;;;6.38;;
11827;SDS011;5971;49.646;8.568;2022-12-18T09:09:46;5.40;;;4.53;;
11827;SDS011;5971;49.646;8.568;2022-12-18T09:12:47;8.13;;;5.10;;
11827;SDS011;5971;49.646;8.568;2022-12-18T09:15:50;12.43;;;3.25;;
11827;SDS011;5971;49.646;8.568;2022-12-18T09:18:52;10.35;;;4.10;;
11827;SDS011;5971;49.646;8.568;2022-12-18T09:22:00;5.03;;;4.32;;
11827;SDS011;5971;49.646;8.568;2022-12-18T09:25:01;8.63;;;4.40;;
11827;SDS011;5971;49.646;8.568;2022-12-18T09:28:03;5.65;;;4.20;;
11827;SDS011;5971;49.646;8.568;2022-12-18T09:31:06;9.30;;;5.72;;
11827;SDS011;5971;49.646;8.568;2022-12-18T09:34:08;6.53;;;3.90;;
11827;SDS011;5971;49.646;8.568;2022-12-18T09:37:09;9.23;;;5.45;;
11827;SDS011;5971;49.646;8.568;2022-12-18T09:40:18;12.77;;;4.95;;
11827;SDS011;5971;49.646;8.568;2022-12-18T09:43:22;6.97;;;4.35;;
11827;SDS011;5971;49.646;8.568;2022-12-18T09:46:36;7.95;;;5.50;;
11827;SDS011;5971;49.646;8.568;2022-12-18T09:49:40;6.97;;;4.88;;
11827;SDS011;5971;49.646;8.568;2022-12-18T09:52:44;7.72;;;3.58;;
11827;SDS011;5971;49.646;8.568;2022-12-18T09:55:46;5.38;;;3.25;;
11827;SDS011;5971;49.646;8.568;2022-12-18T09:59:12;4.40;;;3.40;;
11827;SDS011;5971;49.646;8.568;2022-12-18T10:02:17;5.25;;;3.40;;
11827;SDS011;5971;49.646;8.568;2022-12-18T10:05:20;6.78;;;3.28;;
11827;SDS011;5971;49.646;8.568;2022-12-18T10:12:29;7.20;;;4.90;;
11827;SDS011;5971;49.646;8.568;2022-12-18T10:25:26;10.25;;;6.03;;
11827;SDS011;5971;49.646;8.568;2022-12-18T10:28:19;10.23;;;5.93;;
11827;SDS011;5971;49.646;8.568;2022-12-18T10:31:22;7.82;;;7.03;;
11827;SDS011;5971;49.646;8.568;2022-12-18T10:34:25;15.00;;;7.20;;
11827;SDS011;5971;49.646;8.568;2022-12-18T10:37:27;6.90;;;5.28;;
11827;SDS011;5971;49.646;8.568;2022-12-18T10:40:29;10.18;;;5.90;;
11827;SDS011;5971;49.646;8.568;2022-12-18T10:43:35;9.57;;;6.28;;
11827;SDS011;5971;49.646;8.568;2022-12-18T10:46:36;9.45;;;4.63;;
11827;SDS011;5971;49.646;8.568;2022-12-18T10:49:38;13.60;;;6.28;;
11827;SDS011;5971;49.646;8.568;2022-12-18T10:52:43;8.77;;;5.38;;
11827;SDS011;5971;49.646;8.568;2022-12-18T10:55:48;14.20;;;6.43;;
11827;SDS011;5971;49.646;8.568;2022-12-18T10:58:57;7.72;;;5.63;;
11827;SDS011;5971;49.646;8.568;2022-12-18T11:01:58;11.57;;;6.75;;
11827;SDS011;5971;49.646;8.568;2022-12-18T11:05:00;6.43;;;3.92;;
11827;SDS011;5971;49.646;8.568;2022-12-18T11:08:02;9.30;;;5.15;;
11827;SDS011;5971;49.646;8.568;2022-12-18T11:11:04;14.52;;;5.65;;
11827;SDS011;5971;49.646;8.568;2022-12-18T11:14:15;6.90;;;4.90;;
11827;SDS011;5971;49.646;8.568;2022-12-18T11:17:21;10.35;;;4.47;;
11827;SDS011;5971;49.646;8.568;2022-12-18T11:20:29;11.48;;;5.07;;
11827;SDS011;5971;49.646;8.568;2022-12-18T11:23:32;13.93;;;6.65;;
11827;SDS011;5971;49.646;8.568;2022-12-18T11:26:34;12.70;;;7.25;;
11827;SDS011;5971;49.646;8.568;2022-12-18T11:29:37;9.65;;;4.53;;
11827;SDS011;5971;49.646;8.568;2022-12-18T11:32:47;9.23;;;4.82;;
11827;SDS011;5971;49.646;8.568;2022-12-18T11:35:49;10.27;;;6.75;;
11827;SDS011;5971;49.646;8.568;2022-12-18T11:38:52;8.68;;;4.53;;
11827;SDS011;5971;49.646;8.568;2022-12-18T11:42:12;12.10;;;6.63;;
11827;SDS011;5971;49.646;8.568;2022-12-18T11:48:21;15.20;;;6.88;;
11827;SDS011;5971;49.646;8.568;2022-12-18T11:51:27;14.00;;;6.97;;
11827;SDS011;5971;49.646;8.568;2022-12-18T11:54:29;14.82;;;5.93;;
11827;SDS011;5971;49.646;8.568;2022-12-18T11:57:52;8.98;;;5.38;;
11827;SDS011;5971;49.646;8.568;2022-12-18T12:07:27;17.15;;;8.00;;
11827;SDS011;5971;49.646;8.568;2022-12-18T12:10:36;14.30;;;6.30;;
11827;SDS011;5971;49.646;8.568;2022-12-18T12:16:53;11.02;;;6.35;;
11827;SDS011;5971;49.646;8.568;2022-12-18T12:20:12;16.20;;;9.82;;
11827;SDS011;5971;49.646;8.568;2022-12-18T12:23:22;7.72;;;3.67;;
11827;SDS011;5971;49.646;8.568;2022-12-18T12:26:38;10.23;;;6.72;;
11827;SDS011;5971;49.646;8.568;2022-12-18T12:32:57;10.70;;;6.07;;
11827;SDS011;5971;49.646;8.568;2022-12-18T12:39:08;13.27;;;6.40;;
11827;SDS011;5971;49.646;8.568;2022-12-18T12:45:52;9.90;;;6.75;;
11827;SDS011;5971;49.646;8.568;2022-12-18T12:48:55;16.88;;;7.85;;
11827;SDS011;5971;49.646;8.568;2022-12-18T12:51:59;17.42;;;8.55;;
11827;SDS011;5971;49.646;8.568;2022-12-18T12:55:05;11.32;;;5.03;;
11827;SDS011;5971;49.646;8.568;2022-12-18T12:58:17;14.35;;;7.78;;
11827;SDS011;5971;49.646;8.568;2022-12-18T13:04:31;12.35;;;5.47;;
11827;SDS011;5971;49.646;8.568;2022-12-18T13:07:39;12.90;;;6.60;;
11827;SDS011;5971;49.646;8.568;2022-12-18T13:10:42;10.80;;;6.25;;
11827;SDS011;5971;49.646;8.568;2022-12-18T13:13:51;13.57;;;6.88;;
11827;SDS011;5971;49.646;8.568;2022-12-18T13:17:13;7.30;;;4.30;;
11827;SDS011;5971;49.646;8.568;2022-12-18T13:20:15;10.27;;;6.65;;
11827;SDS011;5971;49.646;8.568;2022-12-18T13:29:43;7.47;;;4.00;;
11827;SDS011;5971;49.646;8.568;2022-12-18T13:32:45;11.57;;;6.72;;
11827;SDS011;5971;49.646;8.568;2022-12-18T13:39:08;11.77;;;6.53;;
11827;SDS011;5971;49.646;8.568;2022-12-18T13:45:37;10.93;;;6.95;;
11827;SDS011;5971;49.646;8.568;2022-12-18T13:48:40;7.55;;;4.43;;
11827;SDS011;5971;49.646;8.568;2022-12-18T13:51:52;8.10;;;5.47;;
11827;SDS011;5971;49.646;8.568;2022-12-18T13:54:57;7.65;;;4.18;;
11827;SDS011;5971;49.646;8.568;2022-12-18T13:58:04;7.22;;;5.20;;
11827;SDS011;5971;49.646;8.568;2022-12-18T14:01:15;8.68;;;5.65;;
11827;SDS011;5971;49.646;8.568;2022-12-18T14:04:33;9.13;;;4.78;;
11827;SDS011;5971;49.646;8.568;2022-12-18T14:07:34;9.23;;;4.05;;
11827;SDS011;5971;49.646;8.568;2022-12-18T14:10:45;5.40;;;4.18;;
11827;SDS011;5971;49.646;8.568;2022-12-18T14:13:49;6.80;;;4.85;;
11827;SDS011;5971;49.646;8.568;2022-12-18T14:16:51;6.65;;;3.38;;
11827;SDS011;5971;49.646;8.568;2022-12-18T14:19:54;6.30;;;4.68;;
11827;SDS011;5971;49.646;8.568;2022-12-18T14:22:55;12.23;;;5.45;;
11827;SDS011;5971;49.646;8.568;2022-12-18T14:25:57;9.13;;;5.25;;
11827;SDS011;5971;49.646;8.568;2022-12-18T14:32:36;8.27;;;4.82;;
11827;SDS011;5971;49.646;8.568;2022-12-18T14:35:38;16.25;;;8.07;;
11827;SDS011;5971;49.646;8.568;2022-12-18T14:38:40;4.93;;;4.00;;
11827;SDS011;5971;49.646;8.568;2022-12-18T14:41:41;9.10;;;4.00;;
11827;SDS011;5971;49.646;8.568;2022-12-18T14:44:43;10.57;;;5.32;;
11827;SDS011;5971;49.646;8.568;2022-12-18T14:48:30;10.45;;;5.15;;
11827;SDS011;5971;49.646;8.568;2022-12-18T14:51:29;5.53;;;3.33;;
11827;SDS011;5971;49.646;8.568;2022-12-18T14:54:31;6.25;;;4.50;;
11827;SDS011;5971;49.646;8.568;2022-12-18T14:57:35;6.47;;;4.03;;
11827;SDS011;5971;49.646;8.568;2022-12-18T15:00:37;11.90;;;4.75;;
11827;SDS011;5971;49.646;8.568;2022-12-18T15:03:43;7.57;;;5.38;;
11827;SDS011;5971;49.646;8.568;2022-12-18T15:06:45;5.55;;;5.00;;
11827;SDS011;5971;49.646;8.568;2022-12-18T15:13:08;9.57;;;5.72;;
11827;SDS011;5971;49.646;8.568;2022-12-18T15:16:10;8.02;;;6.00;;
11827;SDS011;5971;49.646;8.568;2022-12-18T15:19:12;11.20;;;6.85;;
11827;SDS011;5971;49.646;8.568;2022-12-18T15:25:29;13.23;;;7.43;;
11827;SDS011;5971;49.646;8.568;2022-12-18T15:28:36;9.32;;;6.78;;
11827;SDS011;5971;49.646;8.568;2022-12-18T15:31:40;14.70;;;7.35;;
11827;SDS011;5971;49.646;8.568;2022-12-18T15:34:41;7.90;;;5.95;;
11827;SDS011;5971;49.646;8.568;2022-12-18T15:37:43;6.53;;;5.72;;
11827;SDS011;5971;49.646;8.568;2022-12-18T15:40:45;8.80;;;4.63;;
11827;SDS011;5971;49.646;8.568;2022-12-18T15:43:46;13.38;;;6.28;;
11827;SDS011;5971;49.646;8.568;2022-12-18T15:46:48;9.95;;;6.88;;
11827;SDS011;5971;49.646;8.568;2022-12-18T15:49:49;6.13;;;5.45;;
11827;SDS011;5971;49.646;8.568;2022-12-18T15:52:51;7.45;;;5.82;;
11827;SDS011;5971;49.646;8.568;2022-12-18T15:55:53;4.47;;;3.55;;
11827;SDS011;5971;49.646;8.568;2022-12-18T15:59:14;10.95;;;5.50;;
11827;SDS011;5971;49.646;8.568;2022-12-18T16:02:16;6.38;;;4.38;;
11827;SDS011;5971;49.646;8.568;2022-12-18T16:05:24;11.25;;;5.18;;
11827;SDS011;5971;49.646;8.568;2022-12-18T16:08:25;6.00;;;5.13;;
11827;SDS011;5971;49.646;8.568;2022-12-18T16:11:27;9.10;;;5.47;;
11827;SDS011;5971;49.646;8.568;2022-12-18T16:14:44;7.63;;;4.40;;
11827;SDS011;5971;49.646;8.568;2022-12-18T16:17:46;9.98;;;6.72;;
11827;SDS011;5971;49.646;8.568;2022-12-18T16:20:47;17.33;;;7.25;;
11827;SDS011;5971;49.646;8.568;2022-12-18T16:23:49;6.57;;;4.55;;
11827;SDS011;5971;49.646;8.568;2022-12-18T16:26:50;9.48;;;5.50;;
11827;SDS011;5971;49.646;8.568;2022-12-18T16:29:55;14.13;;;6.07;;
11827;SDS011;5971;49.646;8.568;2022-12-18T16:32:57;7.85;;;5.65;;
11827;SDS011;5971;49.646;8.568;2022-12-18T16:35:58;9.05;;;7.70;;
11827;SDS011;5971;49.646;8.568;2022-12-18T16:38:59;17.02;;;7.65;;
11827;SDS011;5971;49.646;8.568;2022-12-18T16:42:05;12.95;;;6.30;;
11827;SDS011;5971;49.646;8.568;2022-12-18T16:45:13;10.32;;;5.70;;
11827;SDS011;5971;49.646;8.568;2022-12-18T16:48:14;11.38;;;7.45;;
11827;SDS011;5971;49.646;8.568;2022-12-18T16:51:16;8.02;;;4.47;;
11827;SDS011;5971;49.646;8.568;2022-12-18T16:54:17;7.65;;;6.53;;
11827;SDS011;5971;49.646;8.568;2022-12-18T16:57:20;11.05;;;5.32;;
11827;SDS011;5971;49.646;8.568;2022-12-18T17:00:25;11.75;;;6.50;;
11827;SDS011;5971;49.646;8.568;2022-12-18T17:03:26;3.80;;;3.40;;
11827;SDS011;5971;49.646;8.568;2022-12-18T17:06:29;7.47;;;5.88;;
11827;SDS011;5971;49.646;8.568;2022-12-18T17:09:30;5.00;;;3.58;;
11827;SDS011;5971;49.646;8.568;2022-12-18T17:12:32;4.80;;;4.40;;
11827;SDS011;5971;49.646;8.568;2022-12-18T17:15:34;10.30;;;4.65;;
11827;SDS011;5971;49.646;8.568;2022-12-18T17:18:35;4.38;;;3.42;;
11827;SDS011;5971;49.646;8.568;2022-12-18T17:21:36;8.07;;;6.35;;
11827;SDS011;5971;49.646;8.568;2022-12-18T17:24:38;6.20;;;5.18;;
11827;SDS011;5971;49.646;8.568;2022-12-18T17:27:40;11.75;;;6.10;;
11827;SDS011;5971;49.646;8.568;2022-12-18T17:30:41;9.75;;;5.13;;
11827;SDS011;5971;49.646;8.568;2022-12-18T17:33:42;7.07;;;4.63;;
11827;SDS011;5971;49.646;8.568;2022-12-18T17:36:44;4.38;;;3.90;;
11827;SDS011;5971;49.646;8.568;2022-12-18T17:39:45;9.65;;;4.93;;
11827;SDS011;5971;49.646;8.568;2022-12-18T17:42:47;8.98;;;5.07;;
11827;SDS011;5971;49.646;8.568;2022-12-18T17:45:48;9.27;;;4.15;;
11827;SDS011;5971;49.646;8.568;2022-12-18T17:48:49;9.40;;;5.68;;
11827;SDS011;5971;49.646;8.568;2022-12-18T17:51:50;5.00;;;2.95;;
11827;SDS011;5971;49.646;8.568;2022-12-18T17:54:52;9.00;;;5.15;;
11827;SDS011;5971;49.646;8.568;2022-12-18T17:57:53;5.78;;;4.25;;
11827;SDS011;5971;49.646;8.568;2022-12-18T18:00:55;5.50;;;4.93;;
11827;SDS011;5971;49.646;8.568;2022-12-18T18:03:59;2.55;;;2.22;;
11827;SDS011;5971;49.646;8.568;2022-12-18T18:07:02;8.18;;;4.00;;
11827;SDS011;5971;49.646;8.568;2022-12-18T18:10:03;7.45;;;5.15;;
11827;SDS011;5971;49.646;8.568;2022-12-18T18:13:26;5.57;;;4.40;;
11827;SDS011;5971;49.646;8.568;2022-12-18T18:16:48;3.03;;;2.67;;
11827;SDS011;5971;49.646;8.568;2022-12-18T18:19:49;10.05;;;5.45;;
11827;SDS011;5971;49.646;8.568;2022-12-18T18:22:51;5.57;;;4.20;;
11827;SDS011;5971;49.646;8.568;2022-12-18T18:25:52;12.98;;;4.00;;
11827;SDS011;5971;49.646;8.568;2022-12-18T18:28:54;5.72;;;4.43;;
11827;SDS011;5971;49.646;8.568;2022-12-18T18:31:55;4.05;;;2.88;;
11827;SDS011;5971;49.646;8.568;2022-12-18T18:34:57;8.02;;;4.20;;
11827;SDS011;5971;49.646;8.568;2022-12-18T18:37:58;6.05;;;5.18;;
11827;SDS011;5971;49.646;8.568;2022-12-18T18:41:00;6.47;;;4.85;;
11827;SDS011;5971;49.646;8.568;2022-12-18T18:44:02;6.00;;;5.15;;
11827;SDS011;5971;49.646;8.568;2022-12-18T18:47:04;7.65;;;6.00;;
11827;SDS011;5971;49.646;8.568;2022-12-18T18:50:09;8.27;;;4.53;;
11827;SDS011;5971;49.646;8.568;2022-12-18T18:53:12;6.22;;;3.80;;
11827;SDS011;5971;49.646;8.568;2022-12-18T18:56:15;5.72;;;4.10;;
11827;SDS011;5971;49.646;8.568;2022-12-18T18:59:37;10.50;;;6.93;;
11827;SDS011;5971;49.646;8.568;2022-12-18T19:02:38;9.55;;;6.00;;
11827;SDS011;5971;49.646;8.568;2022-12-18T19:05:40;10.90;;;7.32;;
11827;SDS011;5971;49.646;8.568;2022-12-18T19:08:47;16.52;;;6.43;;
11827;SDS011;5971;49.646;8.568;2022-12-18T19:11:49;12.68;;;7.10;;
11827;SDS011;5971;49.646;8.568;2022-12-18T19:15:09;9.68;;;7.88;;
11827;SDS011;5971;49.646;8.568;2022-12-18T19:18:13;10.82;;;6.20;;
11827;SDS011;5971;49.646;8.568;2022-12-18T19:21:15;13.73;;;8.82;;
11827;SDS011;5971;49.646;8.568;2022-12-18T19:24:16;14.18;;;8.57;;
11827;SDS011;5971;49.646;8.568;2022-12-18T19:27:18;22.95;;;10.63;;
11827;SDS011;5971;49.646;8.568;2022-12-18T19:30:19;7.35;;;5.35;;
11827;SDS011;5971;49.646;8.568;2022-12-18T19:33:20;9.00;;;6.40;;
11827;SDS011;5971;49.646;8.568;2022-12-18T19:36:42;9.18;;;7.97;;
11827;SDS011;5971;49.646;8.568;2022-12-18T19:39:43;18.38;;;8.38;;
11827;SDS011;5971;49.646;8.568;2022-12-18T19:42:45;8.02;;;6.78;;
11827;SDS011;5971;49.646;8.568;2022-12-18T19:45:53;12.85;;;8.73;;
11827;SDS011;5971;49.646;8.568;2022-12-18T19:48:54;13.85;;;9.60;;
11827;SDS011;5971;49.646;8.568;2022-12-18T19:51:55;13.98;;;9.60;;
11827;SDS011;5971;49.646;8.568;2022-12-18T19:54:57;10.75;;;7.85;;
11827;SDS011;5971;49.646;8.568;2022-12-18T19:57:58;10.48;;;7.75;;
11827;SDS011;5971;49.646;8.568;2022-12-18T20:00:59;15.25;;;8.18;;